createdAt,value
2022-10-02T00:00:26.542Z,100718.19
2022-10-02T00:04:08.124Z,100725.05
2022-10-02T00:07:24.393Z,100727.23
2022-10-02T00:10:13.455Z,100720.23
2022-10-02T00:12:38.085Z,100717.23
2022-10-02T00:15:39.465Z,100716.79
2022-10-02T00:18:31.133Z,100714.21
2022-10-02T00:21:28.997Z,100711.98
2022-10-02T00:24:06.701Z,100710.99
2022-10-02T00:27:37.131Z,100711.52
2022-10-02T00:30:28.960Z,100710.52
2022-10-02T00:33:00.653Z,100711.74
2022-10-02T00:36:26.342Z,100711.11
2022-10-02T00:39:17.679Z,100707.55
2022-10-02T00:42:16.496Z,100706.63
2022-10-02T00:45:37.136Z,100710.94
2022-10-02T00:48:11.195Z,100710.69
2022-10-02T00:51:34.954Z,100714.23
2022-10-02T00:54:30.966Z,100706.40
2022-10-02T00:57:28.731Z,100707.62
2022-10-02T01:00:07.489Z,100705.62
2022-10-02T01:03:11.219Z,100704.87
2022-10-02T01:06:17.272Z,100703.83
2022-10-02T01:08:48.782Z,100702.73
2022-10-02T01:11:09.909Z,100700.13
2022-10-02T01:14:05.384Z,100703.86
2022-10-02T01:16:26.212Z,100706.00
2022-10-02T01:19:16.722Z,100709.28
2022-10-02T01:22:12.652Z,100710.64
2022-10-02T01:25:12.593Z,100711.58
2022-10-02T01:28:13.357Z,100708.88
2022-10-02T01:31:28.782Z,100710.95
2022-10-02T01:37:56.007Z,100716.80
2022-10-02T01:40:28.207Z,100716.73
2022-10-02T01:43:01.851Z,100715.62
2022-10-02T01:46:00.865Z,100713.54
2022-10-02T01:49:27.593Z,100712.73
2022-10-02T01:52:20.974Z,100715.70
2022-10-02T01:55:03.538Z,100720.20
2022-10-02T01:57:40.299Z,100717.06
2022-10-02T02:00:27.422Z,100716.33
2022-10-02T02:03:54.182Z,100715.82
2022-10-02T02:07:07.724Z,100715.20
2022-10-02T02:09:47.152Z,100715.89
2022-10-02T02:13:25.293Z,100711.77
2022-10-02T02:16:45.825Z,100712.44
2022-10-02T02:20:16.837Z,100715.06
2022-10-02T02:23:24.737Z,100715.95
2022-10-02T02:26:25.681Z,100715.73
2022-10-02T02:29:50.778Z,100723.80
2022-10-02T02:32:35.138Z,100719.50
2022-10-02T02:35:40.142Z,100724.81
2022-10-02T02:38:19.429Z,100723.54
2022-10-02T02:41:45.333Z,100720.17
2022-10-02T02:45:16.642Z,100722.06
2022-10-02T02:48:27.861Z,100718.50
2022-10-02T02:51:44.493Z,100721.63
2022-10-02T02:54:41.140Z,100723.88
2022-10-02T02:57:36.753Z,100724.35
2022-10-02T02:59:44.530Z,100725.06
2022-10-02T03:02:20.627Z,100721.02
2022-10-02T03:04:58.491Z,100728.23
2022-10-02T03:07:05.616Z,100721.13
2022-10-02T03:09:18.191Z,100724.92
2022-10-02T03:11:33.528Z,100722.42
2022-10-02T03:14:21.449Z,100723.65
2022-10-02T03:17:03.101Z,100727.61
2022-10-02T03:20:12.281Z,100730.09
2022-10-02T03:22:43.976Z,100729.64
2022-10-02T03:25:35.559Z,100732.62
2022-10-02T03:28:56.930Z,100731.48
2022-10-02T03:31:45.821Z,100735.41
2022-10-02T03:34:54.149Z,100731.95
2022-10-02T03:37:43.471Z,100733.00
2022-10-02T03:40:57.547Z,100729.84
2022-10-02T03:43:46.547Z,100734.45
2022-10-02T03:46:29.773Z,100740.56
2022-10-02T03:48:56.851Z,100741.83
2022-10-02T03:51:58.311Z,100747.64
2022-10-02T03:54:37.251Z,100743.02
2022-10-02T03:58:03.573Z,100739.27
2022-10-02T04:00:53.256Z,100739.17
2022-10-02T04:03:58.688Z,100737.83
2022-10-02T04:07:20.476Z,100741.13
2022-10-02T04:10:44.964Z,100741.00
2022-10-02T04:13:59.985Z,100739.16
2022-10-02T04:16:34.751Z,100739.74
2022-10-02T04:18:54.625Z,100742.01
2022-10-02T04:21:28.917Z,100738.12
2022-10-02T04:24:46.086Z,100744.23
2022-10-02T04:27:57.188Z,100743.21
2022-10-02T04:30:35.579Z,100742.71
2022-10-02T04:32:51.160Z,100741.23
2022-10-02T04:35:53.790Z,100743.80
2022-10-02T04:38:55.783Z,100745.44
2022-10-02T04:41:38.713Z,100743.86
2022-10-02T04:44:23.454Z,100744.63
2022-10-02T04:47:55.470Z,100749.54
2022-10-02T04:51:17.054Z,100751.61
2022-10-02T04:54:34.307Z,100751.02
2022-10-02T04:57:49.622Z,100749.58
2022-10-02T05:00:43.623Z,100750.21
2022-10-02T05:03:30.257Z,100750.45
2022-10-02T05:06:51.604Z,100750.92
2022-10-02T05:10:28.599Z,100750.77
2022-10-02T05:13:55.842Z,100754.59
2022-10-02T05:17:29.241Z,100750.42
2022-10-02T05:20:29.248Z,100749.45
2022-10-02T05:23:24.802Z,100744.77
2022-10-02T05:26:47.181Z,100742.95
2022-10-02T05:30:02.938Z,100741.27
2022-10-02T05:33:25.020Z,100740.80
2022-10-02T05:36:31.243Z,100742.79
2022-10-02T05:39:19.088Z,100736.86
2022-10-02T05:42:47.590Z,100735.73
2022-10-02T05:46:06.691Z,100733.64
2022-10-02T05:49:28.800Z,100737.08
2022-10-02T05:52:27.303Z,100739.56
2022-10-02T05:54:55.809Z,100736.05
2022-10-02T05:58:01.511Z,100736.31
2022-10-02T06:00:39.303Z,100741.55
2022-10-02T06:03:44.272Z,100738.21
2022-10-02T06:07:01.279Z,100738.86
2022-10-02T06:10:13.611Z,100739.20
2022-10-02T06:12:42.481Z,100738.45
2022-10-02T06:16:01.793Z,100739.01
2022-10-02T06:19:07.425Z,100744.14
2022-10-02T06:22:31.690Z,100748.27
2022-10-02T06:26:11.033Z,100746.40
2022-10-02T06:29:08.221Z,100749.52
2022-10-02T06:32:18.755Z,100747.59
2022-10-02T06:34:37.139Z,100741.59
2022-10-02T06:37:04.511Z,100739.04
2022-10-02T06:40:37.750Z,100739.05
2022-10-02T06:44:17.126Z,100740.52
2022-10-02T06:47:26.973Z,100738.27
2022-10-02T06:50:52.069Z,100742.23
2022-10-02T06:53:47.467Z,100740.48
2022-10-02T06:56:17.196Z,100741.82
2022-10-02T06:58:34.918Z,100742.81
2022-10-02T07:01:07.593Z,100743.28
2022-10-02T07:04:40.079Z,100744.01
2022-10-02T07:06:59.879Z,100744.65
2022-10-02T07:09:29.992Z,100746.04
2022-10-02T07:11:56.526Z,100747.69
2022-10-02T07:14:15.745Z,100746.24
2022-10-02T07:16:33.522Z,100750.63
2022-10-02T07:19:07.008Z,100750.32
2022-10-02T07:21:28.464Z,100751.38
2022-10-02T07:23:49.711Z,100752.46
2022-10-02T07:26:10.940Z,100754.72
2022-10-02T07:28:34.983Z,100752.04
2022-10-02T07:31:07.327Z,100748.94
2022-10-02T07:33:41.393Z,100747.96
2022-10-02T07:36:12.498Z,100753.51
2022-10-02T07:38:49.636Z,100757.30
2022-10-02T07:41:47.518Z,100753.48
2022-10-02T07:44:09.858Z,100756.63
2022-10-02T07:46:20.392Z,100758.52
2022-10-02T07:48:58.297Z,100756.20
2022-10-02T07:51:52.896Z,100756.84
2022-10-02T07:55:17.610Z,100755.94
2022-10-02T07:58:00.432Z,100758.60
2022-10-02T08:00:16.812Z,100755.30
2022-10-02T08:02:57.314Z,100753.27
2022-10-02T08:05:31.576Z,100753.79
2022-10-02T08:07:47.598Z,100752.66
2022-10-02T08:09:57.090Z,100747.04
2022-10-02T08:12:12.328Z,100743.56
2022-10-02T08:14:45.715Z,100741.98
2022-10-02T08:17:23.282Z,100738.31
2022-10-02T08:19:41.754Z,100741.25
2022-10-02T08:22:19.204Z,100737.98
2022-10-02T08:24:53.856Z,100740.80
2022-10-02T08:27:13.435Z,100739.86
2022-10-02T08:29:32.883Z,100741.36
2022-10-02T08:31:59.427Z,100742.75
2022-10-02T08:34:24.510Z,100743.45
2022-10-02T08:37:08.881Z,100747.44
2022-10-02T08:39:59.951Z,100749.41
2022-10-02T08:42:47.840Z,100747.08
2022-10-02T08:45:34.666Z,100757.83
2022-10-02T08:48:08.714Z,100752.08
2022-10-02T08:50:37.965Z,100752.15
2022-10-02T08:53:39.079Z,100751.00
2022-10-02T08:56:06.700Z,100749.73
2022-10-02T08:58:43.572Z,100752.80
2022-10-02T09:01:26.218Z,100755.40
2022-10-02T09:03:52.581Z,100759.45
2022-10-02T09:06:06.441Z,100764.98
2022-10-02T09:08:45.568Z,100765.85
2022-10-02T09:11:45.756Z,100762.58
2022-10-02T09:14:58.817Z,100761.83
2022-10-02T09:18:02.281Z,100759.63
2022-10-02T09:20:37.575Z,100758.91
2022-10-02T09:23:08.200Z,100764.86
2022-10-02T09:25:41.863Z,100758.20
2022-10-02T09:28:56.648Z,100760.94
2022-10-02T09:32:03.313Z,100757.02
2022-10-02T09:35:17.579Z,100757.86
2022-10-02T09:37:33.370Z,100750.07
2022-10-02T09:39:56.664Z,100747.00
2022-10-02T09:42:46.695Z,100743.73
2022-10-02T09:45:36.840Z,100737.52
2022-10-02T09:48:12.524Z,100742.39
2022-10-02T09:50:23.309Z,100748.14
2022-10-02T09:53:10.723Z,100742.07
2022-10-02T09:55:24.382Z,100738.79
2022-10-02T09:58:18.125Z,100737.81
2022-10-02T10:00:43.700Z,100735.80
2022-10-02T10:03:10.380Z,100739.45
2022-10-02T10:06:13.925Z,100742.22
2022-10-02T10:08:45.637Z,100740.52
2022-10-02T10:11:21.307Z,100742.73
2022-10-02T10:13:47.823Z,100747.43
2022-10-02T10:16:10.853Z,100750.30
2022-10-02T10:19:00.698Z,100752.54
2022-10-02T10:22:10.374Z,100750.27
2022-10-02T10:24:45.441Z,100747.44
2022-10-02T10:27:49.411Z,100746.09
2022-10-02T10:31:02.505Z,100748.23
2022-10-02T10:33:46.745Z,100752.51
2022-10-02T10:36:46.758Z,100746.74
2022-10-02T10:39:08.521Z,100745.73
2022-10-02T10:41:57.866Z,100744.00
2022-10-02T10:44:09.319Z,100744.80
2022-10-02T10:46:26.568Z,100747.90
2022-10-02T10:49:03.107Z,100748.77
2022-10-02T10:52:14.629Z,100749.66
2022-10-02T10:54:41.066Z,100751.39
2022-10-02T10:57:00.332Z,100748.27
2022-10-02T10:59:28.178Z,100748.42
2022-10-02T11:01:38.897Z,100748.10
2022-10-02T11:04:20.127Z,100752.16
2022-10-02T11:06:58.738Z,100755.88
2022-10-02T11:09:09.395Z,100755.34
2022-10-02T11:11:23.193Z,100758.36
2022-10-02T11:13:49.465Z,100759.39
2022-10-02T11:16:08.790Z,100763.42
2022-10-02T11:19:00.383Z,100761.93
2022-10-02T11:21:40.154Z,100766.92
2022-10-02T11:23:57.663Z,100767.34
2022-10-02T11:26:05.768Z,100769.71
2022-10-02T11:28:37.690Z,100769.27
2022-10-02T11:31:17.730Z,100765.39
2022-10-02T11:33:44.800Z,100763.19
2022-10-02T11:36:40.586Z,100765.03
2022-10-02T11:39:27.080Z,100765.47
2022-10-02T11:41:49.769Z,100767.45
2022-10-02T11:44:21.324Z,100767.92
2022-10-02T11:46:58.209Z,100768.56
2022-10-02T11:49:09.392Z,100766.60
2022-10-02T11:51:55.008Z,100766.28
2022-10-02T11:54:11.754Z,100768.42
2022-10-02T11:56:31.498Z,100774.51
2022-10-02T11:58:55.355Z,100776.72
2022-10-02T12:01:06.394Z,100778.15
2022-10-02T12:03:21.013Z,100777.66
2022-10-02T12:05:39.182Z,100777.59
2022-10-02T12:08:21.798Z,100774.81
2022-10-02T12:10:53.794Z,100779.72
2022-10-02T12:13:21.440Z,100778.52
2022-10-02T12:16:01.546Z,100780.42
2022-10-02T12:18:28.249Z,100779.31
2022-10-02T12:21:24.435Z,100786.02
2022-10-02T12:23:58.959Z,100786.00
2022-10-02T12:26:49.248Z,100789.88
2022-10-02T12:29:25.982Z,100788.27
2022-10-02T12:31:56.720Z,100790.41
2022-10-02T12:34:20.434Z,100797.27
2022-10-02T12:36:47.923Z,100797.00
2022-10-02T12:39:05.926Z,100798.81
2022-10-02T12:41:48.331Z,100802.58
2022-10-02T12:44:25.825Z,100810.92
2022-10-02T12:46:44.348Z,100814.66
2022-10-02T12:48:55.413Z,100817.35
2022-10-02T12:51:06.140Z,100811.42
2022-10-02T12:53:37.343Z,100814.17
2022-10-02T12:56:14.772Z,100813.77
2022-10-02T12:58:58.312Z,100817.23
2022-10-02T13:01:59.450Z,100822.45
2022-10-02T13:04:16.768Z,100826.71
2022-10-02T13:06:51.554Z,100825.36
2022-10-02T13:09:19.434Z,100832.52
2022-10-02T13:11:57.885Z,100832.66
2022-10-02T13:14:27.559Z,100837.16
2022-10-02T13:16:47.399Z,100836.73
2022-10-02T13:18:55.803Z,100837.05
2022-10-02T13:21:54.540Z,100841.15
2022-10-02T13:24:14.949Z,100843.86
2022-10-02T13:26:27.305Z,100842.67
2022-10-02T13:28:50.545Z,100848.33
2022-10-02T13:31:08.332Z,100851.94
2022-10-02T13:33:25.746Z,100852.63
2022-10-02T13:35:49.251Z,100859.38
2022-10-02T13:38:03.516Z,100856.32
2022-10-02T13:40:46.298Z,100856.45
2022-10-02T13:43:14.761Z,100855.80
2022-10-02T13:45:33.793Z,100855.63
2022-10-02T13:47:44.508Z,100860.60
2022-10-02T13:50:04.949Z,100856.80
2022-10-02T13:52:31.645Z,100861.67
2022-10-02T13:54:50.449Z,100857.95
2022-10-02T13:57:05.972Z,100855.48
2022-10-02T13:59:26.634Z,100857.63
2022-10-02T14:01:55.149Z,100860.20
2022-10-02T14:04:11.560Z,100862.56
2022-10-02T14:06:42.166Z,100864.38
2022-10-02T14:09:16.765Z,100862.55
2022-10-02T14:11:59.821Z,100863.48
2022-10-02T14:14:39.260Z,100866.09
2022-10-02T14:17:30.164Z,100868.36
2022-10-02T14:19:50.663Z,100870.01
2022-10-02T14:22:01.415Z,100874.90
2022-10-02T14:25:09.649Z,100878.69
2022-10-02T14:27:50.048Z,100876.58
2022-10-02T14:30:24.347Z,100884.30
2022-10-02T14:32:44.097Z,100880.36
2022-10-02T14:35:25.793Z,100885.63
2022-10-02T14:37:53.598Z,100888.59
2022-10-02T14:40:01.972Z,100891.34
2022-10-02T14:42:40.471Z,100895.58
2022-10-02T14:44:57.523Z,100902.43
2022-10-02T14:47:25.645Z,100897.79
2022-10-02T14:49:36.658Z,100903.98
2022-10-02T14:51:47.593Z,100905.48
2022-10-02T14:54:16.748Z,100910.06
2022-10-02T14:56:34.060Z,100912.84
2022-10-02T14:59:03.514Z,100912.55
2022-10-02T15:01:42.753Z,100918.48
2022-10-02T15:04:28.341Z,100921.17
2022-10-02T15:06:46.704Z,100918.69
2022-10-02T15:09:22.531Z,100921.57
2022-10-02T15:11:52.436Z,100923.20
2022-10-02T15:14:12.520Z,100923.73
2022-10-02T15:16:40.085Z,100931.09
2022-10-02T15:19:06.642Z,100935.98
2022-10-02T15:21:51.846Z,100936.88
2022-10-02T15:24:14.352Z,100940.07
2022-10-02T15:26:47.140Z,100937.78
2022-10-02T15:29:21.675Z,100945.30
2022-10-02T15:31:42.097Z,100952.83
2022-10-02T15:34:07.180Z,100949.50
2022-10-02T15:36:30.837Z,100952.33
2022-10-02T15:38:57.662Z,100955.45
2022-10-02T15:41:40.604Z,100950.36
2022-10-02T15:44:27.393Z,100951.98
2022-10-02T15:47:00.767Z,100948.66
2022-10-02T15:49:15.247Z,100950.77
2022-10-02T15:52:10.445Z,100946.22
2022-10-02T15:54:48.556Z,100943.81
2022-10-02T15:57:50.935Z,100946.05
2022-10-02T16:00:57.567Z,100943.17
2022-10-02T16:03:49.043Z,100946.49
2022-10-02T16:06:09.099Z,100950.73
2022-10-02T16:08:58.409Z,100948.38
2022-10-02T16:11:03.776Z,100945.89
2022-10-02T16:14:22.645Z,100945.64
2022-10-02T16:17:45.113Z,100937.23
2022-10-02T16:20:08.501Z,100940.08
2022-10-02T16:23:08.660Z,100946.24
2022-10-02T16:26:06.426Z,100946.05
2022-10-02T16:29:26.108Z,100947.10
2022-10-02T16:32:46.680Z,100949.38
2022-10-02T16:36:24.260Z,100957.15
2022-10-02T16:39:33.429Z,100953.88
2022-10-02T16:42:08.614Z,100954.33
2022-10-02T16:44:29.037Z,100958.78
2022-10-02T16:46:46.675Z,100959.95
2022-10-02T16:49:24.544Z,100960.09
2022-10-02T16:52:19.653Z,100958.70
2022-10-02T16:54:47.732Z,100957.48
2022-10-02T16:57:48.869Z,100960.23
2022-10-02T17:00:20.014Z,100962.63
2022-10-02T17:03:23.334Z,100963.10
2022-10-02T17:05:58.690Z,100963.73
2022-10-02T17:08:53.165Z,100969.40
2022-10-02T17:12:03.009Z,100967.67
2022-10-02T17:15:16.127Z,100971.33
2022-10-02T17:18:16.464Z,100965.97
2022-10-02T17:21:27.836Z,100966.57
2022-10-02T17:24:19.055Z,100970.24
2022-10-02T17:26:44.177Z,100971.58
2022-10-02T17:29:42.240Z,100973.09
2022-10-02T17:32:14.115Z,100973.36
2022-10-02T17:35:25.907Z,100976.61
2022-10-02T17:38:39.976Z,100974.30
2022-10-02T17:41:55.213Z,100968.48
2022-10-02T17:44:44.430Z,100968.70
2022-10-02T17:47:47.397Z,100966.59
2022-10-02T17:51:01.790Z,100966.59
2022-10-02T17:54:25.718Z,100965.54
2022-10-02T17:57:13.277Z,100964.40
2022-10-02T17:59:56.566Z,100965.27
2022-10-02T18:03:04.905Z,100962.02
2022-10-02T18:06:51.931Z,100966.46
2022-10-02T18:10:35.884Z,100963.70
2022-10-02T18:14:18.993Z,100962.41
2022-10-02T18:17:45.971Z,100962.52
2022-10-02T18:21:07.878Z,100962.27
2022-10-02T18:24:41.809Z,100963.80
2022-10-02T18:28:24.326Z,100957.53
2022-10-02T18:31:56.261Z,100958.36
2022-10-02T18:34:42.755Z,100959.38
2022-10-02T18:37:14.003Z,100951.02
2022-10-02T18:40:33.952Z,100951.41
2022-10-02T18:44:03.113Z,100950.16
2022-10-02T18:47:15.974Z,100951.94
2022-10-02T18:50:22.272Z,100949.58
2022-10-02T18:54:05.889Z,100937.20
2022-10-02T18:57:21.809Z,100939.92
2022-10-02T19:00:43.660Z,100940.40
2022-10-02T19:04:27.051Z,100936.65
2022-10-02T19:07:26.691Z,100938.56
2022-10-02T19:11:04.310Z,100936.40
2022-10-02T19:14:29.774Z,100937.84
2022-10-02T19:17:55.948Z,100935.25
2022-10-02T19:21:24.778Z,100938.04
2022-10-02T19:24:23.276Z,100932.38
2022-10-02T19:27:22.590Z,100933.55
2022-10-02T19:30:23.313Z,100934.02
2022-10-02T19:33:19.156Z,100933.23
2022-10-02T19:36:14.638Z,100930.75
2022-10-02T19:39:41.131Z,100926.71
2022-10-02T19:42:00.879Z,100929.83
2022-10-02T19:45:02.536Z,100931.42
2022-10-02T19:48:09.866Z,100930.39
2022-10-02T19:51:45.018Z,100936.47
2022-10-02T19:54:54.264Z,100932.34
2022-10-02T19:58:19.743Z,100931.08
2022-10-02T20:02:00.333Z,100931.21
2022-10-02T20:05:20.978Z,100929.45
2022-10-02T20:08:42.776Z,100926.80
2022-10-02T20:12:01.433Z,100923.71
2022-10-02T20:15:08.009Z,100917.73
2022-10-02T20:18:15.108Z,100914.91
2022-10-02T20:21:45.154Z,100912.41
2022-10-02T20:25:11.047Z,100912.69
2022-10-02T20:28:16.898Z,100918.83
2022-10-02T20:31:45.249Z,100908.44
2022-10-02T20:35:23.356Z,100914.33
2022-10-02T20:38:34.380Z,100907.71
2022-10-02T20:42:02.698Z,100903.26
2022-10-02T20:45:29.783Z,100900.36
2022-10-02T20:52:27.546Z,100899.90
2022-10-02T20:56:05.350Z,100899.35
2022-10-02T20:59:37.146Z,100898.50
2022-10-02T21:03:03.989Z,100888.80
2022-10-02T21:06:45.888Z,100886.75
2022-10-02T21:10:15.807Z,100881.52
2022-10-02T21:14:00.213Z,100879.80
2022-10-02T21:17:26.803Z,100874.58
2022-10-02T21:21:02.460Z,100873.38
2022-10-02T21:24:19.681Z,100872.50
2022-10-02T21:27:37.904Z,100872.29
2022-10-02T21:31:16.497Z,100868.55
2022-10-02T21:34:42.155Z,100859.81
2022-10-02T21:38:16.158Z,100861.00
2022-10-02T21:41:54.017Z,100855.59
2022-10-02T21:45:43.386Z,100850.89
2022-10-02T21:48:56.249Z,100846.15
2022-10-02T21:52:18.067Z,100842.27
2022-10-02T21:55:37.333Z,100843.50
2022-10-02T21:59:14.803Z,100837.59
2022-10-02T22:02:39.132Z,100834.06
2022-10-02T22:05:47.512Z,100830.14
2022-10-02T22:08:57.987Z,100825.73
2022-10-02T22:12:05.884Z,100824.55
2022-10-02T22:15:32.468Z,100824.48
2022-10-02T22:19:11.009Z,100822.52
2022-10-02T22:22:55.729Z,100826.05
2022-10-02T22:26:17.493Z,100825.95
2022-10-02T22:29:51.494Z,100825.81
2022-10-02T22:32:55.788Z,100827.89
2022-10-02T22:36:18.029Z,100829.52
2022-10-02T22:39:57.064Z,100825.23
2022-10-02T22:43:16.517Z,100820.71
2022-10-02T22:46:30.854Z,100823.39
2022-10-02T22:49:38.342Z,100821.98
2022-10-02T22:52:42.687Z,100821.90
2022-10-02T22:55:55.533Z,100814.64
2022-10-02T22:59:06.317Z,100817.66
2022-10-02T23:02:04.771Z,100820.55
2022-10-02T23:05:34.509Z,100820.52
2022-10-02T23:08:47.312Z,100817.71
2022-10-02T23:12:02.541Z,100819.86
2022-10-02T23:15:18.908Z,100824.70
2022-10-02T23:18:24.462Z,100824.34
2022-10-02T23:21:46.615Z,100825.15
2022-10-02T23:24:38.330Z,100827.01
2022-10-02T23:28:10.051Z,100823.89
2022-10-02T23:31:30.475Z,100825.95
2022-10-02T23:34:58.887Z,100821.02
2022-10-02T23:38:42.851Z,100821.56
2022-10-02T23:42:09.016Z,100822.51
2022-10-02T23:45:15.352Z,100818.19
2022-10-02T23:48:25.422Z,100821.14
2022-10-02T23:51:38.351Z,100818.46
2022-10-02T23:54:51.129Z,100820.85
2022-10-02T23:58:13.255Z,100816.25
